Santiago Gomez

Scout - Nacional
31 Dec 2026
Thursday
Process

Personality

Adaptability (5) Ambition (11) Controversy (5) Loyalty (13) Pressure (14) Professionalism (18) Sportsmanship (15) Temperament (2)

Profile

Coaching Style Democratic
License Continental Pro
Determination 14
Man Management 6
Motivating 14
Discipline 14
Job Satisfaction
50%
Fatigue
0%
Role Scout
Wage 92.0K p/w
Contract 14.03.2029

Performance

Behaviour Normal
Training Effectiveness
16%
Player Development
70%
Injury Prevention
30%
Tactical Implementation
35%

Recent Events

Attended a recruitment meeting now
Attended a recruitment meeting 7d ago
Attended a recruitment meeting 7d ago
Attended a recruitment meeting 14d ago
Attended a recruitment meeting 14d ago
Presented a dossier to the board 14d ago
Attended a recruitment meeting 21d ago
Attended a recruitment meeting 21d ago

Currently Monitoring

115
Player Club Status Ability Confidence Watched Last Observed Latest Vote
Lorenzo Montipò Venezia Active 152 / 136 40% 1 29.12.2026 -
Nikola Vasilj Al-Diriyah Active 126 / 138 40% 1 29.12.2026 -
Caio Vidal Ludogorets Active 116 / 132 40% 1 30.11.2026 -
Bitello Dinamo Moscow Active 134 / 130 40% 1 30.11.2026 -
Scott McKenna Dinamo Zagreb Active 123 / 126 40% 1 27.11.2026 -
Volodymyr Brazhko Dynamo Kyiv Active 131 / 133 40% 1 27.11.2026 -
Haissem Hassan Bloemfontein Celtic Active 137 / 138 40% 2 26.11.2026 -
Batxi Krasnodar Active 140 / 133 40% 1 26.11.2026 -
Franko Kolić Istra 1961 Active 90 / 112 40% 1 24.11.2026 -
Kingsley Coman Al-Nassr Active 135 / 149 40% 2 23.11.2026 -
Leon Bailey Olympiacos Active 155 / 147 40% 1 23.11.2026 -
Christian Kouamé Aris Thessaloniki Active 132 / 132 40% 1 22.11.2026 Needs More Info
Gustavo Mantuan Zenit Active 144 / 130 40% 2 21.11.2026 -
Conrad Wallem Austria Wien Active 114 / 123 40% 1 21.11.2026 -
Joseph Aidoo Crvena Zvezda Active 119 / 134 40% 1 19.11.2026 -
Alessio Romagnoli Lazio Active 156 / 152 40% 1 19.11.2026 -
Felipe Augusto Zenit Active 124 / 129 40% 1 19.11.2026 -
João Félix Olympiacos Active 150 / 150 40% 1 19.11.2026 -
Ryan Gauld Vancouver Whitecaps Active 128 / 131 40% 3 17.11.2026 -
Razvan Balasa Crvena Zvezda Active 148 / 147 40% 2 17.11.2026 -
Lukáš Provod Slavia Prague Active 139 / 142 40% 3 15.11.2026 -
Julian Weigl Al-Qadisiyah Active 157 / 144 40% 1 15.11.2026 -
Edoardo Corvi Parma Active 107 / 123 40% 1 15.11.2026 -
Mamour N'Diaye Sarpsborg 08 Active 131 / 119 40% 1 15.11.2026 -
Stav Toriel Hapoel Tel Aviv Active 110 / 130 40% 1 13.11.2026 -
Marquinhos Spartak Moscow Active 136 / 135 40% 1 13.11.2026 -
Marwan Ateya Al Ahly Active 129 / 131 40% 2 12.11.2026 -
Diego Romero Universitario Active 123 / 123 40% 1 12.11.2026 -
Rúben Neves Al-Hilal Active 166 / 144 40% 1 12.11.2026 -
Alan Lescano Argentinos Juniors Active 130 / 128 40% 2 11.11.2026 -
Romano Schmid Frosinone Active 145 / 141 40% 1 11.11.2026 -
Reda Khadra Qarabag Active 132 / 131 40% 1 10.11.2026 -
Josh Brownhill Al-Shabab Active 114 / 135 40% 1 09.11.2026 -
Marco Di Cesare Racing Club Active 132 / 128 40% 1 09.11.2026 -
Antony Portland Timbers Active 121 / 127 40% 1 07.11.2026 -
Aníbal Moreno River Plate Active 119 / 131 40% 1 07.11.2026 -
Mauro Arambarri River Plate Active 146 / 151 40% 4 06.11.2026 -
Wilfried Singo Galatasaray Active 141 / 140 40% 1 06.11.2026 -
Ferland Mendy Real Madrid Active 134 / 137 40% 5 05.11.2026 -
Pablo Solari Spartak Moscow Active 124 / 133 40% 1 04.11.2026 -
Ollie Watkins Al-Hilal Active 156 / 143 40% 1 04.11.2026 -
Lukáš Červ Viktoria Plzen Active 116 / 130 40% 3 03.11.2026 -
Oleh Ocheretko Shakhtar Active 145 / 125 40% 2 03.11.2026 Needs More Info
Marco Asensio Fenerbahce Rejected 177 / 160 40% 1 02.11.2026 Needs More Info
Roger Fernandes Al-Ittihad Active 121 / 132 40% 1 02.11.2026 -
Israel Reyes CSKA Moscow Active 145 / 143 40% 1 01.11.2026 -
Franco Ibarra Rosario Central Active 120 / 125 40% 1 01.11.2026 -
Sergio Reguilón Inter Miami CF Active 131 / 137 40% 5 31.10.2026 -
Emanuel Mammana Vélez Active 124 / 130 40% 2 31.10.2026 -
Marlon Gomes Shakhtar Active 119 / 137 40% 3 30.10.2026 -
Thiago Almada River Plate Active 152 / 151 40% 1 30.10.2026 -
Sergio Arribas Almería Active 150 / 130 40% 1 29.10.2026 -
Jonathan Bamba Chicago Fire Active 124 / 134 40% 1 28.10.2026 -
Paxten Aaronson Colorado Rapids Active 145 / 136 40% 1 28.10.2026 -
Georges-Kévin Nkoudou Al-Diriyah Active 123 / 123 40% 1 27.10.2026 -
Leroy Sané Galatasaray Active 154 / 159 40% 2 26.10.2026 -
Nino Zenit Active 148 / 138 40% 2 24.10.2026 -
Bamba Dieng Crvena Zvezda Active 112 / 129 40% 1 21.10.2026 -
Batista Mendy Trabzonspor Active 155 / 134 40% 1 17.10.2026 -
Mattéo Guendouzi Fenerbahce Active 154 / 144 40% 1 17.10.2026 -
Yasuto Wakizaka Kawasaki Frontale Active 126 / 139 40% 1 16.10.2026 -
Helinho Toluca Active 122 / 132 40% 1 16.10.2026 -
Carl Rushworth Coventry City Active 125 / 139 40% 1 16.10.2026 -
Tomoki Hayakawa Kashima Antlers Active 140 / 141 40% 1 16.10.2026 -
Lucas Torreira Galatasaray Active 140 / 147 40% 1 14.10.2026 -
Rasmus Kristensen FC Midtjylland Active 139 / 149 40% 1 13.10.2026 -
Jon Gorrotxategi Real Sociedad Active 126 / 145 40% 1 12.10.2026 -
Sebastián Meza Huracán Active 119 / 125 40% 1 11.10.2026 -
Haji Wright Coventry City Active 148 / 133 40% 1 10.10.2026 -
Takuma Asano Sanfrecce Hiroshima Active 124 / 126 40% 1 10.10.2026 -
Dani Raba Standard Liege Active 151 / 135 40% 2 09.10.2026 -
Kirian Las Palmas Active 155 / 136 40% 1 09.10.2026 -
Erison Kawasaki Frontale Active 134 / 134 40% 2 08.10.2026 -
Telasco Segovia Inter Miami CF Active 128 / 131 40% 1 08.10.2026 -
Veljko Birmančević Ferencvaros Active 141 / 130 40% 1 07.10.2026 -
Yuma Suzuki Kashima Antlers Active 135 / 143 40% 1 07.10.2026 Needs More Info
Václav Černý Besiktas Active 125 / 130 40% 1 05.10.2026 -
Petar Stanić Ludogorets Active 119 / 127 40% 1 05.10.2026 -
Wendel Zenit Active 131 / 135 40% 1 05.10.2026 -
Răzvan Sava Universitatea Craiova Active 115 / 123 40% 3 04.10.2026 -
Ander Astralaga Barcelona Active 141 / 119 40% 1 04.10.2026 -
Christian Krasnodar Active 128 / 137 40% 1 03.10.2026 -
Felipe Zenobio Tigre Active 127 / 125 40% 1 02.10.2026 -
Lautaro Maldonado Instituto Active 101 / 113 40% 1 02.10.2026 -
Riqui Puig LA Galaxy Active 142 / 131 40% 1 27.09.2026 -
Svetoslav Vutsov Levski Active 125 / 122 40% 1 25.09.2026 -
Elías Rafn Ólafsson FC Midtjylland Active 139 / 117 40% 1 25.09.2026 -
Thorgan Witsel KV Oostende Active 133 / 137 40% 1 24.09.2026 -
Félix Lemaréchal Club Brugge Active 126 / 139 40% 1 22.09.2026 -
Erick Reyes Toluca Active 138 / 136 40% 2 21.09.2026 -
Niklas Steffen Thun Active 102 / 119 40% 1 21.09.2026 -
Carlos Rodríguez Cruz Azul Active 129 / 139 40% 1 20.09.2026 -
Alejandro Zendejas Club America Active 138 / 136 40% 1 20.09.2026 -
Tyrick Mitchell Crystal Palace Active 145 / 153 40% 1 16.09.2026 -
Kyrylo Fesiun Shakhtar Active 102 / 126 40% 1 15.09.2026 -
Denis Bouanga Los Angeles Football Club Active 130 / 137 40% 2 14.09.2026 -
Leandro Andrade Polissia Active 141 / 128 40% 1 14.09.2026 -
Luis Romo Guadalajara Active 135 / 138 40% 2 13.09.2026 -
Ricardo Chávez Monterrey Active 126 / 132 40% 1 13.09.2026 -
Pavel Bucha FC Cincinnati Active 121 / 129 40% 1 11.09.2026 -
Sebastián Córdova Pumas UNAM Active 145 / 128 40% 1 11.09.2026 -
Niklas Hedl Zurich Active 123 / 115 40% 1 11.09.2026 -
Kazuki Fujita Avispa Fukuoka Active 108 / 132 40% 1 11.09.2026 -
Cristian Espinoza Nashville SC Active 137 / 133 40% 1 09.09.2026 -
Carlos Forbs Club Brugge Active 132 / 133 40% 1 09.09.2026 -
Erik Lira Cruz Azul Active 126 / 133 40% 1 09.09.2026 -
Jorge Rodríguez Monterrey Active 130 / 131 40% 1 09.09.2026 -
Oussama Idrissi Pachuca Active 139 / 140 40% 1 07.09.2026 -
Jorge Quintero La Equidad Active 137 / 127 40% 1 09.08.2026 -
Miles Robinson FC Cincinnati Active 138 / 131 40% 1 06.08.2026 -
Leonardo Borja La Equidad Active 145 / 144 40% 1 06.08.2026 -
Sergej Milinković-Savić Al-Hilal Active 158 / 164 40% 1 05.08.2026 -
Diego Rossi Monterrey Active 126 / 131 40% 1 02.08.2026 -
Omar El Hilali Espanyol Active 138 / 140 40% 1 01.08.2026 -
Agustín Palavecino Cruz Azul Active 128 / 138 40% 1 01.08.2026 -